Time;durP1;ratioP1;P1;durP2;ratioP2;P2;SDS_P1;SDS_P2;PMS_P1;PMS_P2;Temp;Humidity;BMP_temperature;BMP_pressure;BME280_temperature;BME280_humidity;BME280_pressure;Samples;Min_cycle;Max_cycle;Signal;HPM_P1;HPM_P2
2023/10/06 00:00:47;;;;;;;24.15;12.50;;;;;;;13.70;100.00;102414.34;5036009;28;20826;-74
2023/10/06 00:03:16;;;;;;;28.30;13.07;;;;;;;13.57;100.00;102426.63;5042476;28;20044;-73
2023/10/06 00:05:48;;;;;;;26.67;13.18;;;;;;;13.59;100.00;102427.38;5027377;28;20853;-73
2023/10/06 00:08:17;;;;;;;23.50;13.88;;;;;;;13.56;100.00;102416.84;5032641;28;20037;-73
2023/10/06 00:10:51;;;;;;;26.30;13.40;;;;;;;13.47;100.00;102415.47;5033229;28;20069;-73
2023/10/06 00:13:24;;;;;;;28.02;13.35;;;;;;;13.41;100.00;102415.81;5034774;28;20026;-74
2023/10/06 00:15:51;;;;;;;25.42;14.20;;;;;;;13.35;100.00;102418.75;5042189;28;20052;-73
2023/10/06 00:18:23;;;;;;;23.45;13.45;;;;;;;13.35;100.00;102417.91;5030812;28;20133;-73
2023/10/06 00:20:49;;;;;;;24.92;14.38;;;;;;;13.35;100.00;102424.13;5031507;28;20033;-73
2023/10/06 00:23:21;;;;;;;25.25;13.95;;;;;;;13.35;100.00;102426.78;5032578;28;20025;-73
2023/10/06 00:25:47;;;;;;;25.88;14.27;;;;;;;13.31;100.00;102411.84;5030708;28;20135;-73
2023/10/06 00:28:19;;;;;;;23.48;14.02;;;;;;;13.26;100.00;102413.03;5030873;28;20079;-72
2023/10/06 00:30:47;;;;;;;21.00;14.00;;;;;;;13.28;100.00;102417.34;5034294;28;20033;-73
2023/10/06 00:33:14;;;;;;;26.27;13.82;;;;;;;13.35;100.00;102413.41;5033882;28;20930;-74
2023/10/06 00:35:41;;;;;;;23.05;14.45;;;;;;;13.26;100.00;102416.56;5029536;28;20046;-74
2023/10/06 00:38:16;;;;;;;28.27;13.98;;;;;;;13.26;100.00;102416.56;5031900;28;20029;-73
2023/10/06 00:40:51;;;;;;;29.02;14.82;;;;;;;13.16;100.00;102410.75;5028113;28;20033;-73
2023/10/06 00:43:39;;;;;;;23.50;15.13;;;;;;;13.17;100.00;102407.13;5028816;28;20128;-73
2023/10/06 00:46:08;;;;;;;25.27;14.20;;;;;;;13.14;100.00;102409.94;5036769;28;20042;-73
2023/10/06 00:48:40;;;;;;;29.17;14.30;;;;;;;13.21;100.00;102405.19;5029370;28;20040;-73
2023/10/06 00:51:12;;;;;;;23.70;14.38;;;;;;;13.21;100.00;102402.50;5036663;28;20044;-74
2023/10/06 00:53:39;;;;;;;25.25;14.80;;;;;;;13.15;100.00;102402.78;5034073;28;20045;-73
2023/10/06 00:56:11;;;;;;;25.73;15.77;;;;;;;13.19;100.00;102389.16;5027845;28;20042;-74
2023/10/06 00:58:41;;;;;;;35.47;15.40;;;;;;;13.29;100.00;102388.75;5030642;28;20268;-73
2023/10/06 01:01:16;;;;;;;32.22;15.73;;;;;;;13.13;100.00;102381.44;5029609;28;20044;-74
2023/10/06 01:03:48;;;;;;;22.42;13.52;;;;;;;13.14;100.00;102383.16;5027799;28;20148;-73
2023/10/06 01:06:15;;;;;;;30.00;15.70;;;;;;;13.11;100.00;102383.34;5024367;28;20157;-73
2023/10/06 01:08:52;;;;;;;26.55;14.82;;;;;;;13.15;100.00;102384.91;5035150;28;20033;-73
2023/10/06 01:11:26;;;;;;;28.15;15.93;;;;;;;13.14;100.00;102383.16;5023051;28;20061;-74
2023/10/06 01:14:00;;;;;;;41.58;18.35;;;;;;;13.11;100.00;102385.16;5017036;28;20040;-73
2023/10/06 01:16:30;;;;;;;25.95;16.80;;;;;;;13.10;100.00;102381.59;5039163;28;20033;-74
2023/10/06 01:19:06;;;;;;;32.08;17.50;;;;;;;12.98;100.00;102389.34;5036525;28;20041;-74
2023/10/06 01:21:32;;;;;;;27.52;17.27;;;;;;;12.95;100.00;102385.91;5032191;28;20025;-73
2023/10/06 01:23:58;;;;;;;34.70;18.38;;;;;;;13.04;100.00;102389.03;5027410;28;20029;-73
2023/10/06 01:26:24;;;;;;;33.22;17.98;;;;;;;13.05;100.00;102386.31;5022979;28;20042;-74
2023/10/06 01:28:51;;;;;;;32.33;17.60;;;;;;;12.99;100.00;102375.00;5030641;28;20053;-74
2023/10/06 01:31:19;;;;;;;33.65;19.40;;;;;;;13.07;100.00;102375.53;5034909;28;20119;-73
2023/10/06 01:33:45;;;;;;;32.38;18.17;;;;;;;13.01;100.00;102376.69;5032172;28;20048;-73
2023/10/06 01:36:14;;;;;;;34.60;17.38;;;;;;;13.01;100.00;102373.16;5035167;28;20045;-72
2023/10/06 01:38:43;;;;;;;27.35;17.05;;;;;;;13.04;100.00;102368.50;5036687;28;20064;-74
2023/10/06 01:41:11;;;;;;;26.63;16.30;;;;;;;13.05;100.00;102366.66;5032154;28;20037;-74
2023/10/06 01:43:38;;;;;;;35.58;16.50;;;;;;;13.00;100.00;102368.72;5034983;28;20025;-74
2023/10/06 01:46:07;;;;;;;26.88;14.65;;;;;;;12.87;100.00;102363.09;5031325;28;20029;-73
2023/10/06 01:48:33;;;;;;;22.83;13.35;;;;;;;12.93;100.00;102360.13;5031795;28;20049;-73
2023/10/06 01:50:59;;;;;;;25.15;12.60;;;;;;;12.91;100.00;102353.97;5029731;28;20049;-73
2023/10/06 01:53:32;;;;;;;28.77;14.27;;;;;;;12.89;100.00;102356.72;5010656;28;20038;-74
2023/10/06 01:56:01;;;;;;;26.70;14.60;;;;;;;12.94;100.00;102352.00;5032521;28;20037;-73
2023/10/06 01:58:27;;;;;;;29.23;16.90;;;;;;;12.90;100.00;102350.44;5032684;28;20186;-73
2023/10/06 02:00:53;;;;;;;35.20;18.05;;;;;;;12.83;100.00;102340.97;5038060;28;20029;-73
2023/10/06 02:03:21;;;;;;;30.30;16.23;;;;;;;12.80;100.00;102342.91;5033067;28;20065;-73
2023/10/06 02:05:46;;;;;;;29.60;16.58;;;;;;;12.93;100.00;102352.94;5009228;28;20052;-74
2023/10/06 02:08:21;;;;;;;34.00;16.38;;;;;;;12.89;100.00;102347.81;5036300;28;20042;-73
2023/10/06 02:10:50;;;;;;;32.85;15.27;;;;;;;12.92;100.00;102350.34;5037769;28;20129;-73
2023/10/06 02:13:21;;;;;;;23.58;13.93;;;;;;;12.89;100.00;102346.00;5031522;28;20040;-74
2023/10/06 02:15:58;;;;;;;29.13;14.50;;;;;;;12.81;100.00;102360.72;5037071;28;21858;-73
2023/10/06 02:18:35;;;;;;;26.17;14.35;;;;;;;12.84;100.00;102361.44;5028083;28;20066;-74
2023/10/06 02:21:04;;;;;;;28.08;14.02;;;;;;;12.80;100.00;102367.00;5030026;28;20038;-73
2023/10/06 02:23:29;;;;;;;20.40;12.90;;;;;;;12.88;100.00;102371.06;5034080;28;20108;-73
2023/10/06 02:25:55;;;;;;;30.95;14.32;;;;;;;12.74;100.00;102364.63;5033755;28;20072;-74
2023/10/06 02:28:20;;;;;;;27.25;13.85;;;;;;;12.66;100.00;102365.88;5033419;28;20562;-72
2023/10/06 02:30:51;;;;;;;24.55;14.35;;;;;;;12.69;100.00;102354.13;5025426;28;20034;-73
2023/10/06 02:33:17;;;;;;;26.23;14.07;;;;;;;12.77;100.00;102364.50;5026957;28;21102;-74
2023/10/06 02:35:46;;;;;;;32.38;14.60;;;;;;;12.79;100.00;102363.47;5031537;28;20048;-73
2023/10/06 02:38:12;;;;;;;25.00;14.57;;;;;;;12.66;100.00;102359.66;5030562;28;20084;-74
2023/10/06 02:40:44;;;;;;;30.67;14.05;;;;;;;12.70;100.00;102366.56;5028747;28;20040;-74
2023/10/06 02:43:16;;;;;;;30.45;13.70;;;;;;;12.76;100.00;102362.75;5029937;28;20041;-74
2023/10/06 02:45:42;;;;;;;36.13;14.75;;;;;;;12.72;100.00;102353.13;5025456;28;20103;-73
2023/10/06 02:48:23;;;;;;;31.75;13.15;;;;;;;12.67;100.00;102353.34;5026060;28;20502;-74
2023/10/06 02:50:55;;;;;;;25.40;12.73;;;;;;;12.73;100.00;102352.19;5032914;28;20195;-74
2023/10/06 02:53:23;;;;;;;25.83;14.23;;;;;;;12.74;100.00;102346.75;5028260;28;20094;-74
2023/10/06 02:55:55;;;;;;;27.60;13.98;;;;;;;12.62;100.00;102342.00;5047477;28;20051;-74
2023/10/06 02:58:30;;;;;;;26.00;13.85;;;;;;;12.62;100.00;102345.53;5033951;28;20064;-72
2023/10/06 03:00:56;;;;;;;25.63;13.50;;;;;;;12.68;100.00;102339.03;5043103;28;20033;-74
2023/10/06 03:03:27;;;;;;;25.20;13.80;;;;;;;12.59;100.00;102343.00;5038782;28;20045;-73
2023/10/06 03:05:55;;;;;;;29.83;13.98;;;;;;;12.62;100.00;102344.69;5031311;28;20046;-73
2023/10/06 03:08:23;;;;;;;27.88;14.93;;;;;;;12.51;100.00;102338.97;5027381;28;20055;-73
2023/10/06 03:10:49;;;;;;;27.15;14.10;;;;;;;12.65;100.00;102340.06;5027274;28;20071;-74
2023/10/06 03:13:32;;;;;;;31.00;17.65;;;;;;;12.62;100.00;102340.19;5037793;28;20038;-74
2023/10/06 03:15:59;;;;;;;38.33;20.08;;;;;;;12.54;100.00;102345.03;5042958;28;20045;-73
2023/10/06 03:18:25;;;;;;;35.20;20.33;;;;;;;12.54;100.00;102337.00;5040994;28;20026;-74
2023/10/06 03:20:57;;;;;;;35.38;19.10;;;;;;;12.55;100.00;102337.88;5035190;28;20030;-73
2023/10/06 03:23:32;;;;;;;38.15;19.08;;;;;;;12.58;100.00;102335.91;5029788;28;20034;-73
2023/10/06 03:25:58;;;;;;;28.75;17.58;;;;;;;12.56;100.00;102335.13;5030767;28;20049;-73
2023/10/06 03:28:52;;;;;;;29.60;16.33;;;;;;;12.49;100.00;102338.16;5027094;28;20114;-73
2023/10/06 03:33:50;;;;;;;25.50;12.80;;;;;;;12.44;100.00;102333.03;5042395;28;20044;-74
2023/10/06 03:36:26;;;;;;;27.65;13.02;;;;;;;12.51;100.00;102338.97;5034968;28;20187;-73
2023/10/06 03:38:55;;;;;;;29.02;14.02;;;;;;;12.41;100.00;102334.06;5038337;28;20037;-73
2023/10/06 03:41:31;;;;;;;33.25;14.98;;;;;;;12.42;100.00;102332.25;5033912;28;20060;-72
2023/10/06 03:44:03;;;;;;;24.70;14.50;;;;;;;12.44;100.00;102325.00;5037893;28;20488;-73
2023/10/06 03:46:36;;;;;;;33.63;13.77;;;;;;;12.38;100.00;102318.13;5026005;28;20037;-73
2023/10/06 03:49:05;;;;;;;34.38;14.45;;;;;;;12.38;100.00;102311.94;5023402;28;20030;-74
2023/10/06 03:51:37;;;;;;;24.15;13.57;;;;;;;12.47;100.00;102316.84;5033078;28;20056;-73
2023/10/06 03:54:04;;;;;;;31.23;14.57;;;;;;;12.38;100.00;102318.13;5025282;28;20030;-73
2023/10/06 03:56:31;;;;;;;26.65;12.68;;;;;;;12.41;100.00;102318.00;5032712;28;20042;-73
2023/10/06 03:58:56;;;;;;;25.67;12.63;;;;;;;12.38;100.00;102319.94;5036029;28;20033;-73
2023/10/06 04:01:31;;;;;;;28.52;14.30;;;;;;;12.40;100.00;102320.75;5040289;28;20045;-73
2023/10/06 04:03:58;;;;;;;28.67;13.90;;;;;;;12.34;100.00;102310.31;5024283;28;20038;-74
2023/10/06 04:06:26;;;;;;;26.50;12.55;;;;;;;12.38;100.00;102311.94;5033216;28;20056;-73
2023/10/06 04:08:53;;;;;;;25.25;12.98;;;;;;;12.29;100.00;102307.00;5030449;28;21036;-74
2023/10/06 04:11:19;;;;;;;22.23;12.82;;;;;;;12.38;100.00;102307.44;5035436;28;20034;-73
2023/10/06 04:13:45;;;;;;;27.63;12.85;;;;;;;12.36;100.00;102311.16;5058548;28;20037;-73
2023/10/06 04:16:14;;;;;;;23.20;11.95;;;;;;;12.38;100.00;102311.94;5025607;28;20103;-75
2023/10/06 04:18:41;;;;;;;26.92;12.40;;;;;;;12.44;100.00;102311.63;5019765;28;20623;-73
2023/10/06 04:21:11;;;;;;;30.88;12.45;;;;;;;12.47;100.00;102315.97;5024796;28;21480;-74
2023/10/06 04:23:42;;;;;;;27.27;13.63;;;;;;;12.34;100.00;102316.53;5035708;28;20029;-73
2023/10/06 04:26:09;;;;;;;31.02;13.43;;;;;;;12.40;100.00;102315.41;5028547;28;20045;-73
2023/10/06 04:28:36;;;;;;;24.30;13.90;;;;;;;12.36;100.00;102321.84;5030832;28;20083;-73
2023/10/06 04:31:01;;;;;;;25.98;13.55;;;;;;;12.30;100.00;102314.97;5032720;28;20048;-74
2023/10/06 04:33:30;;;;;;;28.23;14.05;;;;;;;12.29;100.00;102313.22;5036666;28;20053;-74
2023/10/06 04:35:56;;;;;;;34.40;13.57;;;;;;;12.34;100.00;102310.31;5035420;28;20038;-73
2023/10/06 04:38:23;;;;;;;22.35;13.65;;;;;;;12.35;100.00;102314.72;5035353;28;20042;-73
2023/10/06 04:40:48;;;;;;;29.17;14.15;;;;;;;12.31;100.00;102303.31;5034220;28;20140;-74
2023/10/06 04:43:14;;;;;;;29.52;13.45;;;;;;;12.33;100.00;102303.25;5025634;28;20038;-73
2023/10/06 04:45:39;;;;;;;27.25;14.43;;;;;;;12.23;100.00;102296.59;5031203;28;20093;-73
2023/10/06 04:48:07;;;;;;;35.20;15.25;;;;;;;12.29;100.00;102307.00;5029911;28;20045;-73
2023/10/06 04:50:38;;;;;;;35.25;14.98;;;;;;;12.24;100.00;102299.19;5037995;28;20037;-74
2023/10/06 04:53:06;;;;;;;26.27;14.57;;;;;;;12.23;100.00;102294.78;5024656;28;20064;-73
2023/10/06 04:55:37;;;;;;;33.80;14.88;;;;;;;12.21;100.00;102294.00;5032522;28;20029;-73
2023/10/06 04:58:15;;;;;;;31.77;12.85;;;;;;;12.30;100.00;102300.72;5045672;28;20038;-74
2023/10/06 05:00:42;;;;;;;29.10;11.60;;;;;;;12.28;100.00;102298.13;5026574;28;20134;-73
2023/10/06 05:03:11;;;;;;;22.73;11.25;;;;;;;12.36;100.00;102293.28;5037479;28;20022;-74
2023/10/06 05:05:40;;;;;;;30.10;12.23;;;;;;;12.29;100.00;102294.50;5035124;28;20064;-75
2023/10/06 05:08:09;;;;;;;25.70;11.90;;;;;;;12.24;100.00;102288.50;5035284;28;20037;-73
2023/10/06 05:10:36;;;;;;;25.42;12.48;;;;;;;12.30;100.00;102295.34;5033378;28;20045;-73
2023/10/06 05:13:06;;;;;;;25.00;11.68;;;;;;;12.22;100.00;102290.38;5036634;28;20038;-73
2023/10/06 05:15:34;;;;;;;38.00;13.55;;;;;;;12.22;100.00;102289.53;5034638;28;20041;-73
2023/10/06 05:18:03;;;;;;;24.65;13.95;;;;;;;12.23;100.00;102305.50;5029744;28;20049;-74
2023/10/06 05:20:31;;;;;;;36.03;14.80;;;;;;;12.19;100.00;102296.72;5026950;28;20872;-74
2023/10/06 05:23:09;;;;;;;28.20;14.20;;;;;;;12.17;100.00;102303.97;5035763;28;20037;-74
2023/10/06 05:25:39;;;;;;;29.20;13.82;;;;;;;12.14;100.00;102301.44;5025051;28;20046;-74
2023/10/06 05:28:07;;;;;;;24.95;14.10;;;;;;;12.12;100.00;102297.97;5026705;28;20037;-74
2023/10/06 05:30:33;;;;;;;29.10;14.48;;;;;;;12.04;100.00;102291.22;5030944;28;20084;-74
2023/10/06 05:33:00;;;;;;;30.48;14.65;;;;;;;12.09;100.00;102284.72;5030864;28;20033;-73
2023/10/06 05:35:35;;;;;;;24.40;14.40;;;;;;;12.07;100.00;102275.06;5037595;28;20118;-74
2023/10/06 05:38:07;;;;;;;32.08;14.90;;;;;;;12.11;100.00;102274.84;5030831;28;20112;-73
2023/10/06 05:40:32;;;;;;;34.55;15.15;;;;;;;12.13;100.00;102282.78;5025236;28;20044;-74
2023/10/06 05:43:00;;;;;;;22.58;13.95;;;;;;;12.18;100.00;102275.41;5026314;28;20040;-73
2023/10/06 05:45:26;;;;;;;24.27;13.60;;;;;;;12.15;100.00;102275.59;5025988;28;20041;-73
2023/10/06 05:47:54;;;;;;;24.15;13.95;;;;;;;12.13;100.00;102270.28;5032326;28;20750;-74
2023/10/06 05:50:29;;;;;;;35.97;15.45;;;;;;;12.17;100.00;102263.00;5036203;28;20037;-74
2023/10/06 05:53:04;;;;;;;27.60;14.88;;;;;;;12.26;100.00;102265.22;5035298;28;20052;-74
2023/10/06 05:55:35;;;;;;;30.63;18.50;;;;;;;12.25;100.00;102266.19;5030806;28;20048;-74
2023/10/06 05:58:01;;;;;;;37.67;20.77;;;;;;;12.34;100.00;102262.19;5031330;28;20045;-74
2023/10/06 06:00:30;;;;;;;36.03;18.90;;;;;;;12.38;100.00;102253.94;5029877;28;20036;-73
2023/10/06 06:03:09;;;;;;;34.13;19.70;;;;;;;12.52;100.00;102268.47;5027499;28;20159;-73
2023/10/06 06:05:37;;;;;;;29.50;17.35;;;;;;;12.52;100.00;102268.47;5031921;28;20065;-74
2023/10/06 06:08:03;;;;;;;27.58;16.58;;;;;;;12.65;100.00;102270.47;5021331;28;20092;-74
2023/10/06 06:10:29;;;;;;;27.40;14.75;;;;;;;12.71;100.00;102269.31;5034402;28;20742;-74
2023/10/06 06:13:00;;;;;;;25.02;12.63;;;;;;;12.70;100.00;102271.13;5031696;28;20030;-73
2023/10/06 06:15:26;;;;;;;29.92;11.55;;;;;;;12.85;100.00;102274.84;5022361;28;20042;-73
2023/10/06 06:17:53;;;;;;;30.30;12.18;;;;;;;12.98;100.00;102267.03;5028053;28;20087;-73
2023/10/06 06:20:21;;;;;;;20.38;10.85;;;;;;;13.06;100.00;102272.03;5024499;28;20055;-73
2023/10/06 06:22:53;;;;;;;21.17;10.90;;;;;;;13.07;100.00;102269.25;5025234;28;20038;-74
2023/10/06 06:25:29;;;;;;;17.75;10.38;;;;;;;13.14;100.00;102265.31;5023972;28;20043;-73
2023/10/06 06:27:59;;;;;;;22.30;9.60;;;;;;;13.15;100.00;102264.38;5026428;28;20465;-74
2023/10/06 06:30:26;;;;;;;20.63;9.35;;;;;;;13.32;100.00;102263.53;5024272;28;20069;-73
2023/10/06 06:32:53;;;;;;;20.33;8.30;;;;;;;13.43;100.00;102258.47;5025622;28;21124;-73
2023/10/06 06:35:23;;;;;;;15.85;8.68;;;;;;;13.45;100.00;102259.28;5023901;28;20033;-74
2023/10/06 06:37:59;;;;;;;16.55;7.20;;;;;;;13.58;100.00;102261.28;5029338;28;20033;-73
2023/10/06 06:40:26;;;;;;;17.00;7.68;;;;;;;13.66;100.00;102267.13;5029020;28;20992;-74
2023/10/06 06:42:52;;;;;;;16.40;6.75;;;;;;;13.81;100.00;102260.06;5030966;28;20033;-73
2023/10/06 06:45:24;;;;;;;16.77;7.75;;;;;;;13.95;100.00;102260.16;5030449;28;20144;-73
2023/10/06 06:47:50;;;;;;;14.45;7.50;;;;;;;14.12;100.00;102260.13;5033723;28;20083;-73
2023/10/06 06:50:17;;;;;;;12.68;6.85;;;;;;;14.26;100.00;102256.66;5031505;28;21011;-73
2023/10/06 06:52:43;;;;;;;17.67;6.75;;;;;;;14.30;100.00;102255.50;5033124;28;20022;-73
2023/10/06 06:55:13;;;;;;;16.85;7.22;;;;;;;14.25;100.00;102249.53;5026981;28;20069;-73
2023/10/06 06:57:46;;;;;;;18.42;6.63;;;;;;;14.12;100.00;102248.53;5025705;28;20074;-73
2023/10/06 07:00:21;;;;;;;12.25;6.43;;;;;;;14.22;100.00;102247.06;5028607;28;20045;-74
2023/10/06 07:02:51;;;;;;;21.17;7.85;;;;;;;14.20;100.00;102244.44;5027458;28;20037;-73
2023/10/06 07:05:18;;;;;;;13.90;6.70;;;;;;;14.08;100.00;102260.38;5021598;28;21839;-74
2023/10/06 07:07:46;;;;;;;14.93;6.63;;;;;;;14.28;100.00;102259.25;5031159;28;20086;-74
2023/10/06 07:10:14;;;;;;;21.35;7.38;;;;;;;14.17;100.00;102251.81;5035146;28;20111;-73
2023/10/06 07:12:44;;;;;;;16.13;7.07;;;;;;;14.23;100.00;102260.38;5029020;28;20029;-74
2023/10/06 07:15:20;;;;;;;19.30;7.32;;;;;;;14.41;100.00;102261.16;5035109;28;20047;-73
2023/10/06 07:17:54;;;;;;;12.70;7.25;;;;;;;14.49;100.00;102255.38;5028583;28;20148;-74
2023/10/06 07:20:28;;;;;;;14.48;6.13;;;;;;;14.66;100.00;102254.41;5025508;28;20041;-73
2023/10/06 07:22:55;;;;;;;17.45;7.18;;;;;;;14.60;100.00;102258.31;5022725;28;20149;-74
2023/10/06 07:25:24;;;;;;;17.05;6.68;;;;;;;14.66;100.00;102259.78;5031413;28;20029;-73
2023/10/06 07:27:53;;;;;;;20.02;7.05;;;;;;;14.43;100.00;102264.63;5028091;28;20120;-73
2023/10/06 07:30:22;;;;;;;18.05;6.30;;;;;;;14.65;100.00;102268.78;5027440;28;20041;-73
2023/10/06 07:32:48;;;;;;;10.50;6.00;;;;;;;14.64;100.00;102265.22;5032299;28;20061;-73
2023/10/06 07:35:17;;;;;;;17.75;6.75;;;;;;;15.08;100.00;102271.66;5037758;28;21007;-74
2023/10/06 07:37:49;;;;;;;12.43;6.40;;;;;;;15.46;100.00;102269.31;5034514;28;20042;-74
2023/10/06 07:40:18;;;;;;;16.38;7.07;;;;;;;15.40;100.00;102275.94;5033787;28;20140;-74
2023/10/06 07:42:49;;;;;;;18.45;7.10;;;;;;;15.27;100.00;102288.41;5024606;28;20042;-74
2023/10/06 07:45:16;;;;;;;18.75;7.30;;;;;;;15.26;100.00;102282.19;5030170;28;20042;-73
2023/10/06 07:47:42;;;;;;;16.02;7.13;;;;;;;15.45;100.00;102275.66;5036476;28;20041;-74
2023/10/06 07:50:09;;;;;;;15.05;6.60;;;;;;;15.31;100.00;102276.50;5032430;28;20127;-74
2023/10/06 07:52:36;;;;;;;12.43;6.70;;;;;;;15.53;100.00;102276.94;5027944;28;20054;-74
2023/10/06 07:55:05;;;;;;;18.77;8.05;;;;;;;15.47;100.00;102287.22;5026668;28;20049;-74
2023/10/06 07:57:33;;;;;;;20.30;8.18;;;;;;;15.44;100.00;102280.19;5028269;28;20039;-73
2023/10/06 08:00:06;;;;;;;19.23;6.18;;;;;;;15.46;100.00;102282.78;5033875;28;20036;-73
2023/10/06 08:02:39;;;;;;;18.50;7.25;;;;;;;15.51;100.00;102277.97;5024759;28;20167;-74
2023/10/06 08:05:11;;;;;;;20.52;7.22;;;;;;;15.59;100.00;102277.53;5028744;28;20681;-74
2023/10/06 08:07:42;;;;;;;18.83;6.60;;;;;;;15.75;100.00;102273.81;5030696;28;20148;-74
2023/10/06 08:10:13;;;;;;;13.48;7.32;;;;;;;15.96;100.00;102276.13;5035573;28;20040;-73
2023/10/06 08:12:50;;;;;;;16.30;6.78;;;;;;;16.02;100.00;102279.31;5028437;28;20029;-73
2023/10/06 08:15:22;;;;;;;16.27;7.22;;;;;;;15.95;100.00;102272.56;5031347;28;20052;-74
2023/10/06 08:17:51;;;;;;;18.70;6.70;;;;;;;16.14;100.00;102276.78;5034234;28;20055;-73
2023/10/06 08:20:17;;;;;;;15.63;6.82;;;;;;;16.16;100.00;102277.53;5046901;28;20053;-73
2023/10/06 08:22:46;;;;;;;15.27;6.57;;;;;;;16.06;100.00;102266.50;5034221;28;20904;-73
2023/10/06 08:25:19;;;;;;;12.77;7.55;;;;;;;16.11;100.00;102264.38;5026095;28;20045;-74
2023/10/06 08:27:45;;;;;;;;;;;;;;;16.21;100.00;102270.03;5032375;28;20482;-75
2023/10/06 08:30:21;;;;;;;13.70;7.25;;;;;;;16.36;100.00;102262.78;5030950;28;19917;-73
2023/10/06 08:32:53;;;;;;;26.70;7.40;;;;;;;16.33;100.00;102263.88;5034515;28;20041;-74
2023/10/06 08:35:19;;;;;;;;;;;;;;;16.44;100.00;102255.97;5033865;28;20041;-74
2023/10/06 08:37:47;;;;;;;16.63;7.30;;;;;;;16.53;100.00;102249.97;5026633;28;19976;-73
2023/10/06 08:40:19;;;;;;;15.68;7.07;;;;;;;16.30;100.00;102239.84;5030873;28;20029;-74
2023/10/06 08:42:52;;;;;;;25.07;6.97;;;;;;;16.69;100.00;102240.88;5027373;28;20042;-74
2023/10/06 08:45:20;;;;;;;17.95;7.07;;;;;;;16.93;100.00;102250.03;5032477;28;21126;-74
2023/10/06 08:47:50;;;;;;;10.10;6.68;;;;;;;16.69;100.00;102248.97;5033492;28;20037;-74
2023/10/06 08:50:22;;;;;;;15.35;6.65;;;;;;;16.65;100.00;102244.72;5028610;28;20034;-73
2023/10/06 08:52:50;;;;;;;16.33;7.20;;;;;;;16.76;100.00;102243.06;5026213;28;21571;-74
2023/10/06 08:55:17;;;;;;;24.00;7.15;;;;;;;16.52;100.00;102234.78;5028855;28;20080;-74
2023/10/06 08:57:48;;;;;;;13.48;6.22;;;;;;;16.67;100.00;102235.59;5026597;28;20037;-73
2023/10/06 09:00:18;;;;;;;20.27;7.18;;;;;;;16.71;100.00;102233.53;5035400;28;20040;-73
2023/10/06 09:02:48;;;;;;;17.58;7.03;;;;;;;16.98;100.00;102239.81;5032585;28;20034;-73
2023/10/06 09:05:16;;;;;;;22.75;7.95;;;;;;;17.17;100.00;102238.53;5027818;28;20137;-73
2023/10/06 09:07:57;;;;;;;19.40;7.07;;;;;;;17.21;100.00;102240.91;5034726;28;20029;-73
2023/10/06 09:10:23;;;;;;;15.98;6.90;;;;;;;17.30;100.00;102237.59;5032087;28;20036;-74
2023/10/06 09:13:01;;;;;;;18.13;5.80;;;;;;;17.40;100.00;102245.91;5032397;28;20053;-74
2023/10/06 09:15:28;;;;;;;14.73;6.40;;;;;;;17.40;100.00;102247.72;5031920;28;20041;-74
2023/10/06 09:17:54;;;;;;;15.82;6.88;;;;;;;17.40;100.00;102248.59;5032149;28;20212;-74
2023/10/06 09:20:31;;;;;;;16.42;6.93;;;;;;;17.39;100.00;102246.88;5026832;28;20165;-73
2023/10/06 09:22:58;;;;;;;17.30;6.32;;;;;;;17.49;100.00;102241.69;5035784;28;20069;-74
2023/10/06 09:25:25;;;;;;;21.92;7.68;;;;;;;17.47;100.00;102236.44;5068148;28;20041;-73
2023/10/06 09:28:04;;;;;;;19.08;6.65;;;;;;;17.54;100.00;102231.44;5030658;28;20033;-73
2023/10/06 09:30:45;;;;;;;15.68;7.20;;;;;;;17.73;100.00;102231.06;5025612;28;20045;-74
2023/10/06 09:33:11;;;;;;;19.23;6.30;;;;;;;17.91;100.00;102220.75;5026622;28;20041;-73
2023/10/06 09:35:36;;;;;;;12.82;6.80;;;;;;;18.29;100.00;102228.75;5036135;28;20049;-73
2023/10/06 09:38:13;;;;;;;13.35;7.07;;;;;;;18.07;100.00;102227.66;5033618;28;20044;-73
2023/10/06 09:40:43;;;;;;;15.30;6.80;;;;;;;18.01;100.00;102222.66;5021818;28;20041;-74
2023/10/06 09:43:13;;;;;;;14.07;6.78;;;;;;;18.11;100.00;102225.56;5032453;28;20177;-74
2023/10/06 09:45:41;;;;;;;15.23;6.88;;;;;;;18.18;100.00;102226.00;5028871;28;20128;-73
2023/10/06 09:48:13;;;;;;;16.25;6.78;;;;;;;18.06;100.00;102219.63;5031324;28;20099;-74
2023/10/06 09:50:42;;;;;;;14.98;7.25;;;;;;;18.42;100.00;102216.06;5061062;28;20064;-73
2023/10/06 09:53:14;;;;;;;15.85;7.22;;;;;;;18.53;100.00;102223.38;5028575;28;20034;-74
2023/10/06 09:55:42;;;;;;;13.80;6.28;;;;;;;18.26;100.00;102228.97;5027617;28;20049;-73
2023/10/06 09:58:08;;;;;;;18.60;7.40;;;;;;;18.34;100.00;102238.25;5025374;28;20025;-73
2023/10/06 10:00:39;;;;;;;17.40;6.15;;;;;;;18.25;100.00;102232.66;5064204;28;20121;-74
2023/10/06 10:03:06;;;;;;;12.63;6.40;;;;;;;18.27;100.00;102234.28;5030772;28;20076;-73
2023/10/06 10:05:32;;;;;;;15.85;6.93;;;;;;;18.28;100.00;102237.84;5025754;28;20056;-74
2023/10/06 10:07:58;;;;;;;14.93;6.25;;;;;;;18.47;100.00;102231.91;5022050;28;20038;-73
2023/10/06 10:10:27;;;;;;;13.30;6.10;;;;;;;18.36;100.00;102228.19;5023446;28;20030;-74
2023/10/06 10:13:20;;;;;;;25.23;7.18;;;;;;;18.57;100.00;102223.00;5031286;28;20044;-74
2023/10/06 10:16:04;;;;;;;12.80;6.72;;;;;;;18.70;100.00;102214.03;5024538;28;20134;-74
2023/10/06 10:18:38;;;;;;;16.55;6.32;;;;;;;19.04;100.00;102221.28;5028185;28;20033;-74
2023/10/06 10:21:06;;;;;;;12.55;5.90;;;;;;;19.18;100.00;102220.22;5026606;28;20039;-74
2023/10/06 10:23:32;;;;;;;18.58;6.72;;;;;;;19.12;100.00;102208.00;5023364;28;20048;-73
2023/10/06 10:26:18;;;;;;;15.40;5.63;;;;;;;19.02;100.00;102204.28;5026865;28;20079;-74
2023/10/06 10:29:04;;;;;;;19.67;6.78;;;;;;;19.18;100.00;102206.69;5012827;28;20885;-73
2023/10/06 10:31:36;;;;;;;14.80;5.78;;;;;;;19.14;100.00;102197.94;5022358;28;20030;-74
2023/10/06 10:34:02;;;;;;;13.95;5.95;;;;;;;19.01;100.00;102188.19;5021790;28;20049;-74
2023/10/06 10:36:27;;;;;;;15.40;5.22;;;;;;;19.14;100.00;102187.13;5023994;28;20128;-74
2023/10/06 10:39:09;;;;;;;19.50;6.30;;;;;;;19.29;100.00;102193.19;5031938;28;20041;-74
2023/10/06 10:41:37;;;;;;;13.23;4.75;;;;;;;19.17;100.00;102196.84;5027885;28;20076;-74
2023/10/06 10:44:07;;;;;;;9.98;4.75;;;;;;;19.24;100.00;102189.97;5033973;28;20033;-73
2023/10/06 10:46:42;;;;;;;11.57;5.22;;;;;;;19.18;100.00;102192.28;5034130;28;20119;-73
2023/10/06 10:49:12;;;;;;;16.23;5.38;;;;;;;19.31;99.67;102193.06;5029459;28;20090;-74
2023/10/06 10:51:54;;;;;;;12.43;4.45;;;;;;;19.53;99.89;102182.28;5025006;28;20100;-74
2023/10/06 10:54:26;;;;;;;11.18;5.13;;;;;;;19.84;97.44;102196.94;5023531;28;20042;-74
2023/10/06 10:56:53;;;;;;;12.85;4.72;;;;;;;20.23;94.16;102182.94;5027750;28;20042;-74
2023/10/06 10:59:22;;;;;;;11.35;4.22;;;;;;;20.12;93.14;102173.00;5025578;28;20095;-73
2023/10/06 11:01:51;;;;;;;17.40;4.90;;;;;;;20.13;90.02;102161.16;5030737;28;20029;-74
2023/10/06 11:04:21;;;;;;;11.93;4.75;;;;;;;20.08;90.42;102163.41;5021398;28;20038;-73
2023/10/06 11:06:51;;;;;;;12.73;4.82;;;;;;;20.05;90.18;102171.78;5027490;28;20063;-73
2023/10/06 11:09:37;;;;;;;10.73;4.70;;;;;;;19.85;90.10;102178.84;5024159;28;20038;-74
2023/10/06 11:12:20;;;;;;;11.27;4.60;;;;;;;19.89;90.64;102164.94;5028917;28;20139;-74
2023/10/06 11:14:46;;;;;;;12.20;4.57;;;;;;;19.88;91.86;102182.16;5057128;28;20067;-74
2023/10/06 11:17:12;;;;;;;12.93;4.70;;;;;;;19.87;90.81;102171.44;5021559;28;20037;-73
2023/10/06 11:19:39;;;;;;;22.35;5.22;;;;;;;19.89;91.29;102180.31;5025747;28;20030;-74
2023/10/06 11:22:20;;;;;;;13.82;4.50;;;;;;;19.98;91.58;102186.81;5022429;28;20871;-73